createdAt,value
2022-11-30T00:01:33.316Z,8.60
2022-11-30T00:04:02.602Z,7.80
2022-11-30T00:06:31.613Z,6.80
2022-11-30T00:09:02.772Z,9.00
2022-11-30T00:11:31.454Z,6.00
2022-11-30T00:14:01.123Z,8.20
2022-11-30T00:16:29.844Z,7.00
2022-11-30T00:18:59.062Z,3.00
2022-11-30T00:21:30.186Z,6.80
2022-11-30T00:23:58.830Z,8.20
2022-11-30T00:26:29.347Z,5.20
2022-11-30T00:28:58.869Z,7.00
2022-11-30T00:31:27.905Z,7.00
2022-11-30T00:33:58.167Z,8.60
2022-11-30T00:36:29.417Z,5.60
2022-11-30T00:38:58.553Z,5.20
2022-11-30T00:41:28.642Z,3.40
2022-11-30T00:43:57.634Z,6.00
2022-11-30T00:46:44.519Z,4.80
2022-11-30T00:49:13.445Z,7.40
2022-11-30T00:51:42.116Z,7.80
2022-11-30T00:54:12.290Z,9.00
2022-11-30T00:56:43.538Z,7.00
2022-11-30T00:59:13.440Z,10.00
2022-11-30T01:01:43.199Z,7.40
2022-11-30T01:04:12.425Z,7.40
2022-11-30T01:06:42.093Z,6.60
2022-11-30T01:09:12.594Z,9.20
2022-11-30T01:11:42.692Z,6.00
2022-11-30T01:14:11.471Z,7.00
2022-11-30T01:16:40.163Z,6.00
2022-11-30T01:19:08.854Z,3.80
2022-11-30T01:21:38.965Z,6.00
2022-11-30T01:24:11.136Z,3.60
2022-11-30T01:26:40.238Z,6.80
2022-11-30T01:29:28.796Z,6.00
2022-11-30T01:31:57.667Z,7.40
2022-11-30T01:34:26.635Z,1.40
2022-11-30T01:36:56.769Z,9.00
2022-11-30T01:39:25.457Z,7.40
2022-11-30T01:41:55.339Z,6.80
2022-11-30T01:44:51.031Z,3.00
2022-11-30T01:47:21.953Z,7.00
2022-11-30T01:49:56.081Z,6.00
2022-11-30T01:52:27.804Z,7.00
2022-11-30T01:54:59.172Z,7.00
2022-11-30T01:57:34.289Z,8.20
2022-11-30T02:00:09.067Z,7.00
2022-11-30T02:02:41.948Z,9.80
2022-11-30T02:05:10.911Z,7.80
2022-11-30T02:07:39.672Z,8.20
2022-11-30T02:10:09.479Z,9.80
2022-11-30T02:12:42.874Z,4.00
2022-11-30T02:15:14.001Z,6.40
2022-11-30T02:17:46.337Z,6.20
2022-11-30T02:20:33.132Z,7.00
2022-11-30T02:23:22.114Z,7.00
2022-11-30T02:25:58.451Z,10.00
2022-11-30T02:28:45.251Z,4.40
2022-11-30T02:31:16.980Z,6.00
2022-11-30T02:33:45.858Z,3.40
2022-11-30T02:36:14.611Z,7.80
2022-11-30T02:38:43.853Z,9.80
2022-11-30T02:41:12.808Z,7.00
2022-11-30T02:43:43.236Z,12.00
2022-11-30T02:46:16.136Z,6.00
2022-11-30T02:48:45.887Z,7.80
2022-11-30T02:51:15.850Z,7.80
2022-11-30T02:53:44.947Z,7.00
2022-11-30T02:56:13.885Z,7.00
2022-11-30T02:58:45.006Z,7.00
2022-11-30T03:01:14.160Z,7.80
2022-11-30T03:03:43.506Z,6.60
2022-11-30T03:06:14.279Z,6.40
2022-11-30T03:08:43.130Z,7.00
2022-11-30T03:11:12.037Z,6.40
2022-11-30T03:13:41.407Z,8.20
2022-11-30T03:16:12.763Z,6.60
2022-11-30T03:18:42.573Z,6.20
2022-11-30T03:21:12.470Z,2.20
2022-11-30T03:23:41.375Z,5.20
2022-11-30T03:26:10.673Z,6.20
2022-11-30T03:28:40.027Z,6.00
2022-11-30T03:31:09.041Z,6.00
2022-11-30T03:33:42.248Z,6.40
2022-11-30T03:36:12.491Z,6.60
2022-11-30T03:38:41.430Z,6.00
2022-11-30T03:41:11.393Z,7.00
2022-11-30T03:43:41.822Z,7.00
2022-11-30T03:46:11.002Z,6.80
2022-11-30T03:48:42.535Z,7.00
2022-11-30T03:51:12.014Z,4.80
2022-11-30T03:53:41.054Z,6.00
2022-11-30T03:56:10.676Z,8.60
2022-11-30T03:58:40.024Z,4.00
2022-11-30T04:01:09.824Z,5.60
2022-11-30T04:03:38.843Z,1.40
2022-11-30T04:06:09.785Z,7.00
2022-11-30T04:08:39.215Z,6.60
2022-11-30T04:11:08.697Z,6.80
2022-11-30T04:13:42.384Z,6.20
2022-11-30T04:16:12.035Z,7.00
2022-11-30T04:18:41.894Z,6.80
2022-11-30T04:21:13.812Z,9.80
2022-11-30T04:23:43.496Z,5.20
2022-11-30T04:26:13.468Z,6.00
2022-11-30T04:28:42.238Z,6.80
2022-11-30T04:31:11.546Z,6.40
2022-11-30T04:33:40.307Z,6.00
2022-11-30T04:36:10.739Z,6.00
2022-11-30T04:38:41.178Z,6.00
2022-11-30T04:41:10.110Z,3.00
2022-11-30T04:43:39.202Z,5.80
2022-11-30T04:46:09.593Z,6.00
2022-11-30T04:48:38.750Z,4.00
2022-11-30T04:51:08.676Z,8.20
2022-11-30T04:53:38.055Z,4.40
2022-11-30T04:56:11.562Z,6.80
2022-11-30T04:58:40.612Z,4.40
2022-11-30T05:01:09.491Z,3.80
2022-11-30T05:03:38.219Z,6.00
2022-11-30T05:06:28.217Z,6.40
2022-11-30T05:08:56.917Z,2.20
2022-11-30T05:11:27.022Z,4.00
2022-11-30T05:13:56.150Z,4.80
2022-11-30T05:16:25.022Z,8.60
2022-11-30T05:18:53.701Z,4.80
2022-11-30T05:21:22.665Z,7.80
2022-11-30T05:23:52.579Z,7.80
2022-11-30T05:26:21.289Z,9.00
2022-11-30T05:28:51.364Z,4.00
2022-11-30T05:31:20.551Z,9.00
2022-11-30T05:33:52.463Z,7.00
2022-11-30T05:36:23.779Z,9.00
2022-11-30T05:38:54.148Z,6.00
2022-11-30T05:41:23.904Z,9.00
2022-11-30T05:43:54.079Z,4.00
2022-11-30T05:46:22.836Z,6.40
2022-11-30T05:48:51.874Z,6.80
2022-11-30T05:51:21.125Z,3.80
2022-11-30T05:53:51.147Z,7.80
2022-11-30T05:56:20.915Z,6.00
2022-11-30T05:58:49.614Z,4.00
2022-11-30T06:01:21.355Z,4.40
2022-11-30T06:06:36.589Z,5.60
2022-11-30T06:09:05.669Z,9.80
2022-11-30T06:11:34.385Z,6.00
2022-11-30T06:14:03.146Z,7.80
2022-11-30T06:16:33.805Z,7.80
2022-11-30T06:19:20.723Z,4.00
2022-11-30T06:21:49.425Z,8.20
2022-11-30T06:24:18.125Z,12.00
2022-11-30T06:26:46.848Z,10.40
2022-11-30T06:29:15.963Z,11.60
2022-11-30T06:31:46.120Z,8.20
2022-11-30T06:34:14.839Z,10.40
2022-11-30T06:36:43.584Z,9.80
2022-11-30T06:39:12.716Z,7.80
2022-11-30T06:41:41.773Z,6.00
2022-11-30T06:44:11.214Z,13.00
2022-11-30T06:46:40.054Z,9.00
2022-11-30T06:49:11.233Z,7.00
2022-11-30T06:51:42.660Z,6.00
2022-11-30T06:54:11.967Z,7.00
2022-11-30T06:56:40.607Z,9.60
2022-11-30T06:59:09.787Z,3.20
2022-11-30T07:01:38.475Z,8.20
2022-11-30T07:04:07.292Z,6.20
2022-11-30T07:06:37.361Z,9.20
2022-11-30T07:09:06.556Z,9.00
2022-11-30T07:11:35.516Z,4.80
2022-11-30T07:14:04.190Z,8.60
2022-11-30T07:16:33.188Z,10.00
2022-11-30T07:19:01.896Z,9.20
2022-11-30T07:21:30.932Z,10.00
2022-11-30T07:24:20.307Z,12.60
2022-11-30T07:26:48.987Z,9.20
2022-11-30T07:29:17.641Z,4.40
2022-11-30T07:31:51.881Z,9.60
2022-11-30T07:34:20.631Z,9.20
2022-11-30T07:36:49.330Z,8.80
2022-11-30T07:39:19.468Z,7.80
2022-11-30T07:41:48.122Z,7.20
2022-11-30T07:44:16.799Z,13.00
2022-11-30T07:46:45.487Z,9.20
2022-11-30T07:49:14.177Z,9.40
2022-11-30T07:54:30.071Z,10.00
2022-11-30T07:56:58.718Z,12.00
2022-11-30T07:59:27.450Z,13.00
2022-11-30T08:01:56.284Z,9.60
2022-11-30T08:04:25.764Z,9.60
2022-11-30T08:06:55.375Z,12.00
2022-11-30T08:09:24.300Z,11.60
2022-11-30T08:11:54.390Z,11.60
2022-11-30T08:14:23.051Z,6.20
2022-11-30T08:16:52.112Z,11.20
2022-11-30T08:19:20.836Z,11.20
2022-11-30T08:21:52.034Z,7.20
2022-11-30T08:24:20.761Z,3.00
2022-11-30T08:26:53.999Z,7.00
2022-11-30T08:29:22.883Z,7.40
2022-11-30T08:31:51.580Z,10.80
2022-11-30T08:34:32.613Z,6.60
2022-11-30T08:37:01.337Z,10.00
2022-11-30T08:39:32.075Z,12.00
2022-11-30T08:42:02.219Z,10.40
2022-11-30T08:44:31.230Z,10.00
2022-11-30T08:46:59.987Z,12.00
2022-11-30T08:49:29.651Z,8.20
2022-11-30T08:54:47.916Z,12.40
2022-11-30T08:57:18.976Z,12.60
2022-11-30T08:59:48.442Z,12.00
2022-11-30T09:02:18.841Z,9.80
2022-11-30T09:04:49.699Z,7.00
2022-11-30T09:07:18.532Z,11.60
2022-11-30T09:12:37.520Z,6.00
2022-11-30T09:15:07.079Z,7.40
2022-11-30T09:17:35.771Z,9.80
2022-11-30T09:20:04.529Z,11.20
2022-11-30T09:22:34.999Z,6.60
2022-11-30T09:25:03.923Z,9.60
2022-11-30T09:27:33.930Z,9.60
2022-11-30T09:30:05.422Z,5.40
2022-11-30T09:32:34.130Z,12.40
2022-11-30T09:35:02.816Z,10.80
2022-11-30T09:37:31.556Z,9.80
2022-11-30T09:40:00.485Z,6.60
2022-11-30T09:42:35.170Z,10.00
2022-11-30T09:45:11.488Z,9.60
2022-11-30T09:47:48.314Z,6.60
2022-11-30T09:50:20.117Z,12.80
2022-11-30T09:52:50.315Z,10.20
2022-11-30T09:55:28.145Z,9.60
2022-11-30T09:57:58.411Z,12.80
2022-11-30T10:00:28.941Z,10.00
2022-11-30T10:02:58.427Z,13.40
2022-11-30T10:05:28.891Z,9.20
2022-11-30T10:08:12.503Z,9.80
2022-11-30T10:10:43.490Z,11.20
2022-11-30T10:13:21.544Z,13.00
2022-11-30T10:15:58.391Z,9.60
2022-11-30T10:18:30.736Z,12.60
2022-11-30T10:21:04.392Z,10.00
2022-11-30T10:23:45.729Z,6.00
2022-11-30T10:26:19.779Z,6.60
2022-11-30T10:28:56.021Z,7.80
2022-11-30T10:31:31.788Z,10.00
2022-11-30T10:34:03.684Z,10.40
2022-11-30T10:36:36.540Z,12.00
2022-11-30T10:39:11.809Z,8.80
2022-11-30T10:41:44.972Z,12.00
2022-11-30T10:44:17.874Z,10.00
2022-11-30T10:46:50.884Z,10.40
2022-11-30T10:49:21.176Z,12.20
2022-11-30T10:51:52.608Z,12.60
2022-11-30T10:54:22.246Z,10.40
2022-11-30T10:56:51.997Z,11.20
2022-11-30T10:59:23.336Z,10.40
2022-11-30T11:01:53.908Z,6.40
2022-11-30T11:04:24.070Z,12.20
2022-11-30T11:06:53.983Z,6.00
2022-11-30T11:09:33.774Z,9.00
2022-11-30T11:12:03.660Z,9.80
2022-11-30T11:14:37.748Z,8.20
2022-11-30T11:17:21.950Z,12.80
2022-11-30T11:19:56.732Z,10.00
2022-11-30T11:22:27.265Z,7.00
2022-11-30T11:24:57.471Z,9.80
2022-11-30T11:27:28.625Z,7.40
2022-11-30T11:30:04.154Z,9.80
2022-11-30T11:33:02.557Z,9.80
2022-11-30T11:35:34.948Z,11.60
2022-11-30T11:38:05.550Z,9.00
2022-11-30T11:40:34.272Z,12.60
2022-11-30T11:43:04.557Z,9.00
2022-11-30T11:45:39.338Z,9.00
2022-11-30T11:48:39.155Z,8.60
2022-11-30T11:51:16.109Z,6.00
2022-11-30T11:56:38.841Z,8.60
2022-11-30T11:59:15.673Z,10.80
2022-11-30T12:01:50.785Z,6.80
2022-11-30T12:04:35.688Z,6.20
2022-11-30T12:07:15.048Z,11.60
2022-11-30T12:09:55.351Z,9.20
2022-11-30T12:12:24.682Z,11.60
2022-11-30T12:14:55.913Z,11.60
2022-11-30T12:17:34.809Z,7.00
2022-11-30T12:20:16.862Z,12.00
2022-11-30T12:23:02.582Z,10.00
2022-11-30T12:25:35.636Z,6.40
2022-11-30T12:28:17.465Z,10.00
2022-11-30T12:30:51.698Z,11.20
2022-11-30T12:33:26.327Z,10.80
2022-11-30T12:36:01.301Z,10.00
2022-11-30T12:38:39.010Z,9.20
2022-11-30T12:41:22.414Z,8.20
2022-11-30T12:43:56.675Z,7.00
2022-11-30T12:46:31.120Z,4.00
2022-11-30T12:49:10.648Z,8.20
2022-11-30T12:51:44.599Z,8.20
2022-11-30T12:54:16.133Z,9.20
2022-11-30T12:56:47.340Z,9.40
2022-11-30T12:59:21.090Z,9.00
2022-11-30T13:02:18.971Z,5.60
2022-11-30T13:04:56.348Z,11.20
2022-11-30T13:07:31.494Z,9.60
2022-11-30T13:10:02.388Z,10.00
2022-11-30T13:12:36.506Z,9.60
2022-11-30T13:15:09.785Z,11.20
2022-11-30T13:17:43.491Z,10.00
2022-11-30T13:20:18.379Z,8.20
2022-11-30T13:22:51.947Z,9.20
2022-11-30T13:25:51.966Z,7.00
2022-11-30T13:28:16.299Z,10.00
2022-11-30T13:30:46.825Z,9.00
2022-11-30T13:33:40.199Z,5.60
2022-11-30T13:36:27.711Z,9.20
2022-11-30T13:41:54.890Z,14.60
2022-11-30T13:44:29.501Z,9.80
2022-11-30T13:47:01.286Z,6.00
2022-11-30T13:49:33.072Z,6.00
2022-11-30T13:54:58.459Z,6.60
2022-11-30T13:57:56.674Z,9.60
2022-11-30T14:00:50.602Z,8.20
2022-11-30T14:03:25.240Z,6.20
2022-11-30T14:05:56.196Z,7.80
2022-11-30T14:08:37.868Z,6.40
2022-11-30T14:11:36.567Z,7.00
2022-11-30T14:14:35.282Z,7.40
2022-11-30T14:17:06.663Z,7.00
2022-11-30T14:19:36.922Z,6.80
2022-11-30T14:22:06.301Z,4.40
2022-11-30T14:24:35.521Z,7.80
2022-11-30T14:27:07.702Z,6.00
2022-11-30T14:29:41.031Z,0.80
2022-11-30T14:32:13.900Z,6.40
2022-11-30T14:34:44.389Z,6.20
2022-11-30T14:37:18.246Z,4.20
2022-11-30T14:39:48.044Z,6.40
2022-11-30T14:42:26.499Z,5.20
2022-11-30T14:44:55.672Z,8.60
2022-11-30T14:47:27.885Z,7.00
2022-11-30T14:49:58.745Z,9.60
2022-11-30T14:52:41.831Z,9.40
2022-11-30T14:55:17.674Z,6.60
2022-11-30T14:58:07.390Z,6.00
2022-11-30T15:00:39.106Z,7.00
2022-11-30T15:03:27.979Z,9.40
2022-11-30T15:05:58.648Z,7.00
2022-11-30T15:08:35.578Z,0.00
2022-11-30T15:13:54.492Z,7.00
2022-11-30T15:16:30.594Z,7.80
2022-11-30T15:19:02.799Z,2.60
2022-11-30T15:21:36.498Z,6.40
2022-11-30T15:24:05.553Z,1.00
2022-11-30T15:26:36.676Z,3.00
2022-11-30T15:29:06.707Z,1.00
2022-11-30T15:31:39.117Z,3.00
2022-11-30T15:34:18.043Z,3.40
2022-11-30T15:36:46.817Z,1.80
2022-11-30T15:39:21.050Z,3.60
2022-11-30T15:41:54.526Z,3.60
2022-11-30T15:44:26.566Z,3.00
2022-11-30T15:46:58.151Z,3.40
2022-11-30T15:49:28.927Z,3.00
2022-11-30T15:52:04.485Z,3.00
2022-11-30T15:54:46.439Z,3.00
2022-11-30T15:57:15.691Z,4.00
2022-11-30T15:59:45.919Z,4.40
2022-11-30T16:02:26.862Z,3.00
2022-11-30T16:05:21.493Z,3.00
2022-11-30T16:07:51.683Z,4.00
2022-11-30T16:10:23.360Z,4.00
2022-11-30T16:12:52.586Z,3.60
2022-11-30T16:15:22.196Z,3.80
2022-11-30T16:17:51.461Z,1.00
2022-11-30T16:20:23.074Z,4.80
2022-11-30T16:22:52.155Z,3.60
2022-11-30T16:25:22.466Z,4.00
2022-11-30T16:27:51.273Z,5.20
2022-11-30T16:30:22.653Z,5.60
2022-11-30T16:32:51.910Z,4.00
2022-11-30T16:35:23.334Z,0.00
2022-11-30T16:37:55.946Z,4.00
2022-11-30T16:40:32.698Z,1.00
2022-11-30T16:43:06.052Z,1.00
2022-11-30T16:45:36.790Z,4.00
2022-11-30T16:48:10.553Z,3.40
2022-11-30T16:50:42.214Z,4.40
2022-11-30T16:53:19.267Z,1.00
2022-11-30T16:55:48.321Z,5.20
2022-11-30T16:58:17.302Z,3.20
2022-11-30T17:00:46.095Z,1.80
2022-11-30T17:03:20.337Z,4.80
2022-11-30T17:05:50.581Z,4.00
2022-11-30T17:08:22.176Z,7.40
2022-11-30T17:10:52.043Z,7.00
2022-11-30T17:13:22.220Z,3.40
2022-11-30T17:15:52.786Z,4.00
2022-11-30T17:18:29.560Z,3.80
2022-11-30T17:21:00.997Z,3.00
2022-11-30T17:23:30.031Z,1.00
2022-11-30T17:26:01.773Z,3.00
2022-11-30T17:28:31.057Z,3.20
2022-11-30T17:31:00.467Z,0.00
2022-11-30T17:33:34.258Z,3.00
2022-11-30T17:36:06.698Z,7.00
2022-11-30T17:38:36.862Z,5.20
2022-11-30T17:41:06.347Z,4.00
2022-11-30T17:43:35.030Z,6.60
2022-11-30T17:46:06.423Z,5.20
2022-11-30T17:48:36.928Z,1.00
2022-11-30T17:51:07.481Z,4.00
2022-11-30T17:53:43.191Z,4.00
2022-11-30T17:56:13.061Z,5.20
2022-11-30T17:58:45.718Z,4.00
2022-11-30T18:01:17.329Z,4.00
2022-11-30T18:03:48.923Z,7.40
2022-11-30T18:06:19.023Z,1.40
2022-11-30T18:08:48.610Z,3.00
2022-11-30T18:11:19.478Z,4.80
2022-11-30T18:13:50.204Z,4.80
2022-11-30T18:16:20.461Z,4.80
2022-11-30T18:18:49.511Z,6.00
2022-11-30T18:21:21.029Z,3.40
2022-11-30T18:23:50.004Z,1.80
2022-11-30T18:26:37.618Z,1.40
2022-11-30T18:29:07.290Z,3.60
2022-11-30T18:31:36.911Z,4.80
2022-11-30T18:34:17.094Z,4.00
2022-11-30T18:36:51.471Z,3.20
2022-11-30T18:39:21.762Z,3.00
2022-11-30T18:41:51.118Z,4.40
2022-11-30T18:44:19.844Z,4.00
2022-11-30T18:46:54.765Z,6.40
2022-11-30T18:49:24.513Z,6.00
2022-11-30T18:51:55.475Z,6.20
2022-11-30T18:54:25.875Z,2.60
2022-11-30T18:56:54.912Z,6.80
2022-11-30T18:59:23.598Z,5.20
2022-11-30T19:01:53.761Z,5.60
2022-11-30T19:04:24.449Z,3.00
2022-11-30T19:06:55.427Z,3.00
2022-11-30T19:09:24.476Z,3.20
2022-11-30T19:11:53.246Z,3.00
2022-11-30T19:14:22.616Z,4.00
2022-11-30T19:16:51.318Z,3.00
2022-11-30T19:19:20.125Z,2.20
2022-11-30T19:21:50.013Z,4.00
2022-11-30T19:24:20.399Z,3.00
2022-11-30T19:26:49.482Z,3.00
2022-11-30T19:29:49.267Z,3.00
2022-11-30T19:32:35.498Z,3.00
2022-11-30T19:35:04.260Z,3.20
2022-11-30T19:37:35.442Z,3.60
2022-11-30T19:40:09.768Z,3.00
2022-11-30T19:42:57.795Z,4.00
2022-11-30T19:45:26.536Z,3.60
2022-11-30T19:47:56.310Z,3.60
2022-11-30T19:50:26.167Z,1.80
2022-11-30T19:52:55.905Z,4.00
2022-11-30T19:55:29.554Z,3.00
2022-11-30T19:58:15.591Z,3.00
2022-11-30T20:00:48.110Z,3.00
2022-11-30T20:03:17.199Z,3.80
2022-11-30T20:05:50.903Z,3.00
2022-11-30T20:08:37.007Z,1.00
2022-11-30T20:11:09.268Z,4.00
2022-11-30T20:13:39.363Z,0.00
2022-11-30T20:16:26.866Z,3.20
2022-11-30T20:18:58.200Z,4.00
2022-11-30T20:21:28.166Z,3.80
2022-11-30T20:23:58.671Z,4.00
2022-11-30T20:26:30.240Z,3.00
2022-11-30T20:28:59.524Z,6.40
2022-11-30T20:31:30.021Z,4.00
2022-11-30T20:33:59.221Z,4.40
2022-11-30T20:36:29.252Z,4.00
2022-11-30T20:38:59.219Z,5.20
2022-11-30T20:41:29.628Z,4.00
2022-11-30T20:43:59.787Z,3.40
2022-11-30T20:46:29.810Z,5.80
2022-11-30T20:48:59.325Z,1.00
2022-11-30T20:51:31.671Z,3.00
2022-11-30T20:54:01.395Z,3.60
2022-11-30T20:56:31.722Z,0.00
2022-11-30T20:59:04.726Z,3.00
2022-11-30T21:01:36.271Z,3.00
2022-11-30T21:04:05.489Z,5.60
2022-11-30T21:06:35.333Z,4.00
2022-11-30T21:09:04.000Z,3.80
2022-11-30T21:11:34.699Z,0.60
2022-11-30T21:14:03.446Z,4.00
2022-11-30T21:16:34.315Z,4.00
2022-11-30T21:19:02.955Z,4.00
2022-11-30T21:21:33.370Z,4.00
2022-11-30T21:24:03.217Z,4.40
2022-11-30T21:26:34.231Z,2.60
2022-11-30T21:29:03.731Z,5.20
2022-11-30T21:31:32.533Z,0.40
2022-11-30T21:34:01.451Z,4.40
2022-11-30T21:36:30.260Z,4.00
2022-11-30T21:39:06.310Z,6.00
2022-11-30T21:41:38.394Z,3.60
2022-11-30T21:44:07.539Z,0.60
2022-11-30T21:46:45.842Z,3.00
2022-11-30T21:49:14.802Z,4.00
2022-11-30T21:51:44.223Z,3.00
2022-11-30T21:54:13.715Z,4.40
2022-11-30T21:56:45.153Z,1.00
2022-11-30T21:59:15.258Z,6.00
2022-11-30T22:01:44.560Z,3.40
2022-11-30T22:04:14.068Z,2.20
2022-11-30T22:06:43.002Z,4.00
2022-11-30T22:09:13.721Z,3.60
2022-11-30T22:11:45.260Z,1.80
2022-11-30T22:14:15.776Z,4.40
2022-11-30T22:16:44.560Z,3.80
2022-11-30T22:19:15.965Z,4.40
2022-11-30T22:21:49.818Z,3.60
2022-11-30T22:24:19.026Z,6.40
2022-11-30T22:26:50.407Z,4.00
2022-11-30T22:29:20.176Z,7.00
2022-11-30T22:31:49.884Z,6.00
2022-11-30T22:34:18.957Z,4.40
2022-11-30T22:36:48.885Z,3.00
2022-11-30T22:39:18.509Z,3.80
2022-11-30T22:41:54.806Z,4.00
2022-11-30T22:44:25.766Z,6.00
2022-11-30T22:46:54.929Z,3.80
2022-11-30T22:49:27.600Z,6.00
2022-11-30T22:51:56.290Z,3.00
2022-11-30T22:54:24.988Z,4.00
2022-11-30T22:56:55.099Z,5.20
2022-11-30T22:59:23.734Z,6.40
2022-11-30T23:01:53.650Z,4.00
2022-11-30T23:04:23.213Z,6.20
2022-11-30T23:06:51.985Z,6.40
2022-11-30T23:09:21.981Z,6.80
2022-11-30T23:11:50.734Z,6.60
2022-11-30T23:14:21.394Z,6.00
2022-11-30T23:16:50.072Z,6.00
2022-11-30T23:19:18.802Z,6.20
2022-11-30T23:21:48.859Z,4.80
2022-11-30T23:24:20.472Z,6.00
2022-11-30T23:26:49.534Z,4.00
2022-11-30T23:29:18.818Z,4.40
2022-11-30T23:31:49.250Z,4.40
2022-11-30T23:34:21.490Z,6.40
2022-11-30T23:36:50.332Z,9.00
2022-11-30T23:39:19.780Z,6.60
2022-11-30T23:41:49.563Z,4.40
2022-11-30T23:44:18.455Z,3.60
2022-11-30T23:46:48.832Z,6.60
2022-11-30T23:49:17.735Z,7.40
2022-11-30T23:51:46.517Z,4.40
2022-11-30T23:54:15.218Z,6.00
2022-11-30T23:56:44.719Z,4.00
2022-11-30T23:59:13.668Z,6.20
